• Join FlightAware (Why Join?)
  • Login
  • US Flag 
11:52AM EST


 

Airport Tracker/Info


-or-


 

Live Flight TrackerFlight Track Log ✈ SWA2436 ✈ 11-Apr-2013 ✈ KONT - KDEN

Flight Track Log - Related Links

Times and Time Zones

All times are in EDT time to prevent confusion due to time zone crossing. See the SWA2436 flight status page for this flight to view local times or setup timezone preferences in your user account.

Time Position Orientation Groundspeed Altitude Reporting Facility
EDT Latitude Longitude Course Direction KTS MPH feet Rate Location/Type
09:39AM 34.0500 -117.5667 260° West 165 190 2,300  Level Southern California TRACON
09:41AM 34.0286 -117.7128 260° West 257 296 6,900 1,440 Climbing Los Angeles Center
09:42AM 34.0733 -117.7772 310° West 254 292 7,000 1,320 Climbing Los Angeles Center
09:43AM 34.1233 -117.8383 315° West 256 295 9,700 2,880 Climbing Los Angeles Center
09:44AM 34.1944 -117.8244 North 291 335 13,000 2,820 Climbing Los Angeles Center
09:45AM 34.2544 -117.7272 53° Northeast 357 411 15,500 3,000 Climbing Los Angeles Center
09:46AM 34.3319 -117.6025 53° Northeast 384 442 19,200 2,760 Climbing Los Angeles Center
09:47AM 34.3897 -117.5108 53° Northeast 398 458 21,200 2,160 Climbing Los Angeles Center
09:48AM 34.4592 -117.3975 53° Northeast 422 486 23,700 1,800 Climbing Los Angeles Center
09:49AM 34.5461 -117.2569 53° Northeast 433 498 25,000 1,440 Climbing Los Angeles Center
09:50AM 34.6186 -117.1383 53° Northeast 439 505 26,700 1,440 Climbing Los Angeles Center
09:51AM 34.6933 -117.0167 53° Northeast 447 514 28,000 1,440 Climbing Los Angeles Center
09:52AM 34.7697 -116.8922 53° Northeast 457 526 29,700 1,440 Climbing Los Angeles Center
09:53AM 34.8472 -116.7647 53° Northeast 467 537 31,000 1,020 Climbing Los Angeles Center
09:54AM 34.9247 -116.6344 54° Northeast 474 545 31,900 960 Climbing Los Angeles Center
09:55AM 35.0297 -116.4897 48° Northeast 476 548 33,000 1,080 Climbing Los Angeles Center
09:56AM 35.1039 -116.4003 45° Northeast 473 544 34,200 960 Climbing Los Angeles Center
09:57AM 35.2111 -116.2667 45° Northeast 466 536 35,000 360 Climbing Los Angeles Center
09:58AM 35.2994 -116.1533 46° Northeast 461 531 35,000  Level Los Angeles Center
09:59AM 35.3778 -116.0272 53° Northeast 465 535 35,000  Level Los Angeles Center
10:00AM 35.4367 -115.8847 63° Northeast 467 537 35,000  Level Los Angeles Center
10:01AM 35.5056 -115.7192 63° Northeast 467 537 35,000  Level Los Angeles Center
10:02AM 35.5633 -115.5769 63° Northeast 467 537 35,000  Level Los Angeles Center
10:03AM 35.6233 -115.4353 62° Northeast 468 539 35,000  Level Los Angeles Center
10:04AM 35.6806 -115.2936 64° Northeast 467 537 35,000  Level Los Angeles Center
10:05AM 35.7381 -115.1525 63° Northeast 463 533 35,000  Level Los Angeles Center
10:06AM 35.7947 -115.0103 64° Northeast 464 534 35,000  Level Los Angeles Center
10:08AM 35.8653 -114.8369 63° Northeast 474 545 35,000  Level Los Angeles Center
10:09AM 35.9225 -114.6906 64° Northeast 475 547 35,000  Level Los Angeles Center
10:10AM 35.9814 -114.5442 64° Northeast 478 550 35,000  Level Los Angeles Center
10:11AM 36.0394 -114.3964 64° Northeast 479 551 35,000  Level Los Angeles Center
10:12AM 36.0983 -114.2478 64° Northeast 482 555 35,000  Level Los Angeles Center
10:13AM 36.1567 -114.0986 64° Northeast 483 556 35,000  Level Los Angeles Center
10:14AM 36.2156 -113.9503 64° Northeast 483 556 35,000  Level Los Angeles Center
10:15AM 36.2853 -113.7700 64° Northeast 483 556 35,000  Level Los Angeles Center
10:16AM 36.3422 -113.6206 65° Northeast 482 555 35,000  Level Los Angeles Center
10:17AM 36.3994 -113.4714 64° Northeast 481 554 35,000  Level Los Angeles Center
10:18AM 36.4553 -113.3233 65° Northeast 477 549 35,000  Level Los Angeles Center
10:19AM 36.5158 -113.1675 64° Northeast 477 549 35,000  Level Los Angeles Center
10:20AM 36.5617 -113.0483 64° Northeast 478 550 35,000  Level Los Angeles Center
10:21AM 36.6300 -112.8678 65° Northeast 483 556 35,000  Level Los Angeles Center
10:22AM 36.6867 -112.7153 65° Northeast 486 559 35,000  Level Los Angeles Center
10:23AM 36.7550 -112.5319 65° Northeast 489 563 35,000  Level Los Angeles Center
10:24AM 36.8122 -112.3786 65° Northeast 491 565 35,000  Level Los Angeles Center
10:25AM 36.8694 -112.2261 65° Northeast 489 563 35,000  Level Los Angeles Center
10:26AM 36.9258 -112.0733 65° Northeast 488 562 35,000  Level Los Angeles Center
10:26AM 36.9481 -112.0119 66° East 486 559 35,000  Level Denver Center
10:27AM 37.0036 -111.8583 66° East 487 560 35,000  Level Denver Center
10:29AM 37.0711 -111.6744 65° Northeast 488 562 35,000  Level Denver Center
10:30AM 37.1267 -111.5203 66° East 488 562 35,000  Level Denver Center
10:31AM 37.1814 -111.3664 66° East 488 562 35,000  Level Denver Center
10:32AM 37.2375 -111.2111 66° East 490 564 35,000  Level Denver Center
10:33AM 37.2933 -111.0533 66° East 497 572 35,000  Level Denver Center
10:34AM 37.3494 -110.8964 66° East 496 571 35,000  Level Denver Center
10:35AM 37.4153 -110.7056 66° East 498 573 35,000  Level Denver Center
10:36AM 37.4719 -110.5464 66° East 500 575 35,000  Level Denver Center
10:37AM 37.5314 -110.3753 66° East 498 573 35,000  Level Denver Center
10:38AM 37.5842 -110.2206 67° East 499 574 35,000  Level Denver Center
10:39AM 37.6378 -110.0656 66° East 502 578 35,000  Level Denver Center
10:40AM 37.6994 -109.8869 66° East 498 573 35,000  Level Denver Center
10:41AM 37.7522 -109.7308 67° East 502 578 35,000  Level Denver Center
10:42AM 37.8136 -109.5503 67° East 499 574 35,000  Level Denver Center
10:43AM 37.8653 -109.3942 67° East 502 578 35,000  Level Denver Center
10:44AM 37.9256 -109.2142 67° East 499 574 35,000  Level Denver Center
10:45AM 37.9775 -109.0597 67° East 497 572 35,000  Level Denver Center
10:46AM 38.0381 -108.8781 67° East 500 575 35,000  Level Denver Center
10:47AM 38.0950 -108.7056 67° East 504 580 35,000  Level Denver Center
10:48AM 38.1447 -108.5522 68° East 495 570 35,000  Level Denver Center
10:49AM 38.1967 -108.3969 67° East 497 572 35,000  Level Denver Center
10:50AM 38.2564 -108.2178 67° East 495 570 35,000  Level Denver Center
10:51AM 38.3061 -108.0642 68° East 493 567 35,000  Level Denver Center
10:52AM 38.3653 -107.8858 67° East 490 564 35,000  Level Denver Center
10:53AM 38.4150 -107.7333 67° East 489 563 35,000  Level Denver Center
10:54AM 38.4711 -107.5533 68° East 490 564 35,000  Level Denver Center
10:55AM 38.5336 -107.4131 60° Northeast 479 551 35,000  Level Denver Center
10:56AM 38.6069 -107.2483 60° Northeast 479 551 35,000  Level Denver Center
10:57AM 38.6694 -107.1075 60° Northeast 478 550 35,000  Level Denver Center
10:58AM 38.7344 -106.9614 60° Northeast 474 545 35,000  Level Denver Center
10:59AM 38.7997 -106.8150 60° Northeast 475 547 35,000  Level Denver Center
11:01AM 38.8786 -106.6425 60° Northeast 469 540 35,000  Level Denver Center
11:02AM 38.9394 -106.5056 60° Northeast 465 535 35,000 -780 Level Denver Center
11:03AM 39.0125 -106.3461 59° Northeast 464 534 33,400 -2,280 Descending Denver Center
11:04AM 39.0744 -106.2072 60° Northeast 467 537 30,400 -2,640 Descending Denver Center
11:05AM 39.1364 -106.0633 61° Northeast 465 535 28,000 -2,520 Descending Denver Center
11:06AM 39.2092 -105.9014 60° Northeast 447 514 25,200 -2,520 Descending Denver Center
11:07AM 39.2686 -105.7678 60° Northeast 429 494 22,900 -2,220 Descending Denver Center
11:08AM 39.3244 -105.6400 61° Northeast 409 471 20,700 -1,800 Descending Denver Center
11:09AM 39.3781 -105.5186 60° Northeast 388 447 19,200 -1,440 Descending Denver Center
11:10AM 39.3994 -105.3944 77° East 370 426 17,800 -1,560 Descending Denver Center
11:11AM 39.4056 -105.2622 87° East 345 397 16,000 -1,620 Descending Denver Center
11:12AM 39.4108 -105.1419 87° East 338 389 14,500 -1,320 Descending Denver Center
11:13AM 39.4164 -105.0150 87° East 333 383 13,300 -780 Descending Denver Center
11:14AM 39.4219 -104.9117 86° East 291 335 12,900 -900 Descending Denver Center
11:15AM 39.4311 -104.8125 83° East 262 302 11,500 -1,200 Descending Denver Center
11:16AM 39.4658 -104.7414 58° Northeast 237 273 10,500 -780 Descending Denver Center
11:17AM 39.5225 -104.6969 31° Northeast 221 254 10,000 -300 Descending Denver Center
11:18AM 39.5775 -104.6633 25° Northeast 218 251 10,000 -480 Level Denver Center
11:19AM 39.6408 -104.6631 360° North 209 241 9,100 -960 Descending Denver Center
11:20AM 39.6939 -104.6619 North 191 220 8,100 -1,020 Descending Denver Center
11:21AM 39.7472 -104.6619 360° North 178 205 7,000 -900 Descending Denver Center
11:22AM 39.7872 -104.6617 360° North 144 166 6,300 -720 Descending Denver Center
11:23AM 39.8275 -104.6611 North 136 157 5,500 -780 Descending Denver Center
11:25AM 39.8500 -104.6667 North  Level FlightAware Approximate
11:32AM 39.8617 -104.6732 North  Level Estimated
11:33AM 39.8617 -104.6732 North  Level Estimated
11:34AM 39.8617 -104.6732 North  Level Estimated